Ampton, United Kingdom
Current Conditions -  °F | °C
As of 2:58 AM on Tuesday 23 Dec 2014 (Local Time) from EGUL Reporting Station
Overcast Overcast  
Wind Chill: 52°   Ceiling: 3200
Heat Index: 52°   Visibility: 6mi
Dew Point: 52°   Wind: 24mph
Humidity: 100%   Direction: 240°WSW
Pressure: 29.95"   Gusts: 26mph
Location:  52.33°N, 0.85°E
Report Text: EGUL 230258Z AUTO 24021G23KT 9999 OVC032 11/11 A2995 RMK AO2 PK WND 25030/17 SLP145 T01100110 53002
Loading
Personal Weather Stations






























Interactive Weather Map New forecast layout! Learn more

10-Day Weather Forecast

Advertisements
Track Severe Weather on mobile